Time;durP1;ratioP1;P1;durP2;ratioP2;P2;SDS_P1;SDS_P2;PMS_P1;PMS_P2;Temp;Humidity;BMP_temperature;BMP_pressure;BME280_temperature;BME280_humidity;BME280_pressure;Samples;Min_cycle;Max_cycle;Signal;HPM_P1;HPM_P2
2024/03/14 00:00:16;;;;;;;5.03;3.10;;;;;;;13.08;68.33;98355.19;4941545;28;20125;-81
2024/03/14 00:02:45;;;;;;;6.13;3.53;;;;;;;13.09;68.42;98353.38;4943678;28;20023;-81
2024/03/14 00:05:10;;;;;;;6.22;3.95;;;;;;;13.00;68.22;98340.16;4958424;28;20039;-82
2024/03/14 00:07:36;;;;;;;6.28;3.78;;;;;;;13.07;68.62;98352.72;4957562;28;20126;-81
2024/03/14 00:10:06;;;;;;;5.35;4.00;;;;;;;13.07;68.34;98350.91;4958046;28;20043;-81
2024/03/14 00:12:32;;;;;;;7.00;4.35;;;;;;;13.08;68.49;98347.31;4974581;28;20026;-81
2024/03/14 00:14:57;;;;;;;7.90;4.10;;;;;;;13.09;68.31;98351.56;4941569;28;20418;-81
2024/03/14 00:17:23;;;;;;;6.25;4.20;;;;;;;13.04;68.20;98343.31;4957550;28;20034;-81
2024/03/14 00:19:49;;;;;;;4.65;3.80;;;;;;;12.99;68.33;98333.28;4941303;28;20031;-81
2024/03/14 00:22:15;;;;;;;5.85;3.83;;;;;;;13.09;67.88;98346.34;4957339;28;20031;-81
2024/03/14 00:24:43;;;;;;;5.10;3.75;;;;;;;13.01;68.21;98339.22;4941069;28;20035;-81
2024/03/14 00:27:09;;;;;;;5.60;3.70;;;;;;;13.07;68.18;98348.28;4974080;28;20031;-80
2024/03/14 00:29:35;;;;;;;6.88;3.85;;;;;;;13.01;68.36;98338.38;4973475;28;20117;-80
2024/03/14 00:32:02;;;;;;;5.07;3.70;;;;;;;13.05;68.23;98347.59;4973093;28;20031;-81
2024/03/14 00:34:28;;;;;;;5.50;3.55;;;;;;;13.02;68.17;98335.59;4957264;28;20038;-80
2024/03/14 00:36:53;;;;;;;4.88;3.47;;;;;;;13.03;68.54;98341.69;4940473;28;20046;-83
2024/03/14 00:39:19;;;;;;;5.40;3.35;;;;;;;13.01;68.10;98341.00;4972963;28;20047;-80
2024/03/14 00:41:45;;;;;;;5.25;3.50;;;;;;;12.96;68.15;98336.16;4939735;28;20399;-80
2024/03/14 00:44:10;;;;;;;7.07;3.92;;;;;;;13.02;68.04;98342.66;4956692;28;20082;-80
2024/03/14 00:46:36;;;;;;;5.30;3.40;;;;;;;12.99;68.31;98338.50;4956717;28;20042;-82
2024/03/14 00:49:02;;;;;;;4.63;3.47;;;;;;;12.96;68.11;98332.72;4974196;28;20031;-82
2024/03/14 00:51:27;;;;;;;4.57;3.45;;;;;;;13.00;68.12;98341.97;4940737;28;20201;-80
2024/03/14 00:53:54;;;;;;;6.90;3.30;;;;;;;12.95;68.13;98325.84;4940343;28;20034;-81
2024/03/14 00:56:20;;;;;;;7.55;3.80;;;;;;;12.97;68.19;98339.63;4956152;28;20050;-81
2024/03/14 00:58:47;;;;;;;6.35;3.70;;;;;;;12.94;68.03;98334.69;4956630;28;20058;-82
2024/03/14 01:01:13;;;;;;;5.85;3.60;;;;;;;12.93;68.10;98330.41;4941185;28;20042;-82
2024/03/14 01:03:39;;;;;;;4.78;3.05;;;;;;;12.92;67.84;98328.75;4956860;28;20041;-82
2024/03/14 01:06:11;;;;;;;5.47;3.17;;;;;;;12.94;68.11;98332.88;4940425;28;20505;-81
2024/03/14 01:08:37;;;;;;;4.80;3.08;;;;;;;12.95;67.91;98337.16;4957209;28;20027;-82
2024/03/14 01:11:03;;;;;;;4.22;3.42;;;;;;;12.94;68.20;98335.50;4956422;28;20043;-82
2024/03/14 01:13:28;;;;;;;4.07;3.17;;;;;;;12.92;68.18;98328.75;4956651;28;20478;-82
2024/03/14 01:15:54;;;;;;;5.00;3.50;;;;;;;12.95;67.95;98333.69;4972636;28;20038;-81
2024/03/14 01:18:19;;;;;;;5.03;3.33;;;;;;;12.91;68.27;98332.34;4940363;28;20042;-82
2024/03/14 01:20:45;;;;;;;3.75;3.03;;;;;;;12.94;68.28;98332.06;4939207;28;20422;-80
2024/03/14 01:23:11;;;;;;;5.53;3.53;;;;;;;12.94;68.05;98329.44;4940282;28;20034;-82
2024/03/14 01:25:37;;;;;;;4.70;3.17;;;;;;;12.86;67.97;98322.28;4973852;28;20031;-81
2024/03/14 01:28:03;;;;;;;6.20;3.17;;;;;;;12.93;68.14;98330.41;4972351;28;20031;-81
2024/03/14 01:30:28;;;;;;;4.15;3.30;;;;;;;12.93;68.05;98333.84;4940358;28;20031;-81
2024/03/14 01:32:56;;;;;;;4.72;3.40;;;;;;;12.87;67.88;98323.91;4956769;28;20054;-81
2024/03/14 01:35:24;;;;;;;4.97;3.53;;;;;;;12.94;67.70;98338.13;4972030;28;20070;-81
2024/03/14 01:37:49;;;;;;;4.05;3.25;;;;;;;12.88;67.68;98333.44;4971923;28;20031;-81
2024/03/14 01:40:15;;;;;;;5.13;3.15;;;;;;;12.89;67.85;98329.03;4957007;28;20034;-82
2024/03/14 01:42:44;;;;;;;5.45;3.28;;;;;;;12.87;67.63;98330.97;4959229;28;20034;-81
2024/03/14 01:45:10;;;;;;;4.25;3.03;;;;;;;12.89;67.88;98327.25;4959593;28;20077;-81
2024/03/14 01:47:35;;;;;;;4.55;3.33;;;;;;;12.93;67.69;98344.31;4959493;28;20057;-81
2024/03/14 01:50:05;;;;;;;4.28;3.13;;;;;;;12.94;67.72;98332.88;4959259;28;20046;-81
2024/03/14 01:52:34;;;;;;;5.45;3.58;;;;;;;12.93;67.63;98330.41;4991656;28;20371;-81
2024/03/14 01:54:59;;;;;;;;;;;;;;;12.93;67.60;98331.22;4960242;28;20030;-81
2024/03/14 01:57:25;;;;;;;3.55;2.80;;;;;;;12.87;67.71;98326.53;4959053;28;20012;-81
2024/03/14 01:59:53;;;;;;;5.15;3.28;;;;;;;12.82;67.66;98324.38;4942926;28;20034;-81
2024/03/14 02:02:19;;;;;;;;;;;;;;;12.91;67.55;98334.97;4960884;28;20495;-81
2024/03/14 02:05:10;;;;;;;4.85;3.40;;;;;;;12.84;67.70;98332.91;4979045;28;19996;-81
2024/03/14 02:07:39;;;;;;;4.97;3.83;;;;;;;12.85;67.98;98338.97;4948429;28;20026;-81
2024/03/14 02:10:09;;;;;;;6.18;3.85;;;;;;;12.78;67.61;98322.19;4963106;28;20089;-81
2024/03/14 02:12:35;;;;;;;4.43;3.35;;;;;;;12.79;67.62;98324.66;4963609;28;20405;-81
2024/03/14 02:15:02;;;;;;;6.80;3.70;;;;;;;12.84;67.77;98334.72;4978650;28;20398;-82
2024/03/14 02:17:29;;;;;;;5.32;3.75;;;;;;;12.84;67.84;98335.53;4947080;28;20030;-81
2024/03/14 02:19:55;;;;;;;7.10;3.97;;;;;;;12.83;67.51;98336.47;4963030;28;20033;-80
2024/03/14 02:22:20;;;;;;;5.32;3.40;;;;;;;12.83;67.81;98336.47;4963500;28;20035;-80
2024/03/14 02:24:51;;;;;;;6.05;4.03;;;;;;;12.81;67.65;98330.56;4978525;28;20529;-82
2024/03/14 02:27:17;;;;;;;4.95;3.88;;;;;;;12.79;67.65;98337.75;4964305;28;20114;-82
2024/03/14 02:29:42;;;;;;;5.30;3.97;;;;;;;12.83;67.46;98346.97;4946615;28;20042;-82
2024/03/14 02:32:09;;;;;;;4.93;3.90;;;;;;;12.82;67.51;98345.31;4962471;28;20035;-82
2024/03/14 02:34:34;;;;;;;5.63;3.97;;;;;;;12.82;67.57;98347.94;4947247;28;20030;-84
2024/03/14 02:37:00;;;;;;;7.18;4.00;;;;;;;12.81;67.61;98346.28;4962426;28;20049;-82
2024/03/14 02:39:26;;;;;;;5.35;3.90;;;;;;;12.77;67.35;98331.81;4962282;28;20038;-83
2024/03/14 02:41:52;;;;;;;5.97;3.70;;;;;;;12.76;67.34;98332.78;4962459;28;20460;-82
2024/03/14 02:44:18;;;;;;;4.65;3.25;;;;;;;12.74;67.42;98336.50;4962493;28;20070;-83
2024/03/14 02:46:44;;;;;;;5.97;3.70;;;;;;;12.76;67.20;98329.31;4946096;28;20037;-83
2024/03/14 02:49:10;;;;;;;5.75;3.80;;;;;;;12.76;67.35;98334.56;4962709;28;20041;-83
2024/03/14 02:51:37;;;;;;;4.97;4.10;;;;;;;12.79;67.20;98340.38;4961926;28;20022;-83
2024/03/14 02:54:06;;;;;;;5.10;3.97;;;;;;;12.74;67.24;98333.88;4946466;28;20421;-84
2024/03/14 02:56:32;;;;;;;5.95;4.78;;;;;;;12.73;67.02;98335.69;4995538;28;20097;-83
2024/03/14 02:58:58;;;;;;;7.00;4.82;;;;;;;12.74;67.26;98339.13;4945887;28;20035;-83
2024/03/14 03:01:24;;;;;;;7.55;5.18;;;;;;;12.71;67.23;98334.97;4962152;28;20031;-83
2024/03/14 03:03:49;;;;;;;6.93;5.28;;;;;;;12.73;67.20;98347.94;4946027;28;20047;-83
2024/03/14 03:06:15;;;;;;;6.32;5.10;;;;;;;12.73;67.09;98347.94;4962073;28;20037;-83
2024/03/14 03:08:42;;;;;;;7.13;5.30;;;;;;;12.72;67.00;98347.13;4961458;28;20049;-83
2024/03/14 03:11:09;;;;;;;6.93;5.38;;;;;;;12.72;67.09;98346.31;4961388;28;20034;-83
2024/03/14 03:13:37;;;;;;;6.85;5.20;;;;;;;12.72;67.13;98352.34;4961924;28;20026;-82
2024/03/14 03:16:04;;;;;;;6.88;5.15;;;;;;;12.72;66.93;98351.53;4961499;28;20037;-83
2024/03/14 03:18:32;;;;;;;6.85;5.22;;;;;;;12.64;67.22;98333.91;4977999;28;20066;-82
2024/03/14 03:20:58;;;;;;;;;;;;;;;12.72;66.99;98354.16;4962375;28;20034;-82
2024/03/14 03:23:24;;;;;;;7.05;5.38;;;;;;;12.65;67.03;98343.41;4977663;28;20406;-83
2024/03/14 03:25:50;;;;;;;8.60;5.53;;;;;;;12.62;67.28;98335.84;4961858;28;20065;-82
2024/03/14 03:28:16;;;;;;;10.07;5.60;;;;;;;12.64;66.96;98344.38;4961425;28;20034;-83
2024/03/14 03:30:43;;;;;;;6.30;5.07;;;;;;;12.66;67.07;98353.72;4961494;28;20165;-82
2024/03/14 03:33:12;;;;;;;7.63;5.65;;;;;;;12.61;67.28;98347.28;4961159;28;20042;-83
2024/03/14 03:35:41;;;;;;;8.57;4.85;;;;;;;12.63;66.91;98343.56;4977910;28;20482;-83
2024/03/14 03:38:06;;;;;;;6.35;5.13;;;;;;;12.64;67.08;98341.75;4977424;28;20031;-83
2024/03/14 03:40:35;;;;;;;7.18;5.53;;;;;;;12.57;67.30;98338.03;4941951;28;20066;-82
2024/03/14 03:43:04;;;;;;;7.88;5.85;;;;;;;12.63;67.00;98351.41;4958669;28;20537;-83
2024/03/14 03:45:29;;;;;;;7.90;5.88;;;;;;;12.58;67.20;98344.94;4974276;28;20042;-82
2024/03/14 03:47:55;;;;;;;7.68;5.95;;;;;;;12.55;67.20;98348.66;4973971;28;20105;-81
2024/03/14 03:50:23;;;;;;;8.40;6.05;;;;;;;12.56;66.95;98344.25;4974344;28;20039;-82
2024/03/14 03:52:49;;;;;;;7.55;5.80;;;;;;;12.53;67.02;98344.53;4957569;28;20102;-82
2024/03/14 03:55:18;;;;;;;7.05;6.00;;;;;;;12.58;67.16;98361.47;4941755;28;20027;-83
2024/03/14 03:57:44;;;;;;;8.57;6.10;;;;;;;12.57;67.04;98351.13;4943223;28;20050;-83
2024/03/14 04:02:56;;;;;;;7.63;6.20;;;;;;;12.53;66.97;98357.63;4960303;28;20413;-83
2024/03/14 04:05:21;;;;;;;9.25;6.30;;;;;;;12.55;67.17;98360.91;4941634;28;20022;-83
2024/03/14 04:07:49;;;;;;;9.35;6.00;;;;;;;12.51;66.75;98356.91;4957865;28;20034;-83
2024/03/14 04:10:15;;;;;;;8.02;6.18;;;;;;;12.51;66.70;98351.69;4958470;28;20031;-83
2024/03/14 04:12:42;;;;;;;7.38;5.70;;;;;;;12.53;66.84;98363.69;4957362;28;20042;-83
2024/03/14 04:15:09;;;;;;;7.65;6.10;;;;;;;12.51;67.22;98364.78;4941746;28;20497;-83
2024/03/14 04:17:35;;;;;;;7.85;5.95;;;;;;;12.51;66.77;98357.75;4959342;28;20508;-83
2024/03/14 04:20:01;;;;;;;6.50;5.70;;;;;;;12.51;67.11;98370.84;4957391;28;20166;-82
2024/03/14 04:22:28;;;;;;;8.15;5.50;;;;;;;12.44;66.83;98349.63;4941287;28;20137;-83
2024/03/14 04:24:54;;;;;;;6.65;5.18;;;;;;;12.49;67.06;98357.91;4973715;28;20041;-83
2024/03/14 04:27:21;;;;;;;6.07;5.22;;;;;;;12.50;66.94;98363.94;4976357;28;20031;-83
2024/03/14 04:29:47;;;;;;;5.97;5.05;;;;;;;12.49;66.83;98365.75;4956958;28;20035;-83
2024/03/14 04:32:13;;;;;;;7.35;5.45;;;;;;;12.44;67.09;98354.84;4941274;28;20063;-84
2024/03/14 04:34:40;;;;;;;7.03;5.13;;;;;;;12.49;66.85;98368.38;4940922;28;20470;-84
2024/03/14 04:37:07;;;;;;;7.97;5.70;;;;;;;12.47;66.70;98359.81;4940759;28;20034;-83
2024/03/14 04:39:33;;;;;;;5.90;4.55;;;;;;;12.42;66.76;98355.97;4940181;28;20475;-83
2024/03/14 04:41:59;;;;;;;7.00;4.80;;;;;;;12.43;66.58;98358.44;4972733;28;20054;-83
2024/03/14 04:44:25;;;;;;;6.90;5.10;;;;;;;12.47;66.56;98375.50;4955579;28;20035;-82
2024/03/14 04:46:54;;;;;;;6.82;4.80;;;;;;;12.43;66.68;98361.06;4972903;28;20046;-84
2024/03/14 04:49:21;;;;;;;8.35;4.80;;;;;;;12.47;66.53;98377.31;4957497;28;20479;-82
2024/03/14 04:51:47;;;;;;;5.82;4.22;;;;;;;12.44;66.68;98372.34;4956661;28;20042;-84
2024/03/14 04:54:16;;;;;;;5.75;4.15;;;;;;;12.45;66.75;98374.84;4962002;28;20038;-84
2024/03/14 04:56:41;;;;;;;6.13;4.20;;;;;;;12.49;66.77;98385.84;4991382;28;20046;-84
2024/03/14 04:59:09;;;;;;;5.72;4.38;;;;;;;12.45;66.45;98372.22;4972460;28;20022;-84
2024/03/14 05:01:35;;;;;;;5.30;4.00;;;;;;;12.45;66.67;98382.69;4940384;28;20133;-83
2024/03/14 05:04:03;;;;;;;7.03;4.05;;;;;;;12.46;66.74;98376.50;4956330;28;20054;-83
2024/03/14 05:06:28;;;;;;;6.00;3.85;;;;;;;12.45;66.70;98376.63;4956305;28;20043;-84
2024/03/14 05:08:54;;;;;;;5.68;3.90;;;;;;;12.44;66.41;98380.22;4940496;28;20042;-83
2024/03/14 05:11:21;;;;;;;5.35;3.80;;;;;;;12.49;66.51;98386.69;4973915;28;20398;-84
2024/03/14 05:13:56;;;;;;;5.63;3.83;;;;;;;12.53;66.76;98387.25;4972628;28;20438;-84
2024/03/14 05:16:23;;;;;;;6.70;3.97;;;;;;;12.49;66.43;98383.22;4974017;28;20039;-82
2024/03/14 05:18:49;;;;;;;4.75;3.90;;;;;;;12.55;66.49;98400.19;4941829;29;20082;-86
2024/03/14 05:21:15;;;;;;;4.18;3.38;;;;;;;12.57;66.20;98399.09;4953265;28;20039;-77
2024/03/14 05:23:41;;;;;;;3.83;3.17;;;;;;;12.53;66.46;98389.84;4953123;29;20332;-77
2024/03/14 05:26:07;;;;;;;5.85;3.20;;;;;;;12.60;67.25;98395.38;4936820;29;20098;-76
2024/03/14 05:28:34;;;;;;;6.03;3.20;;;;;;;12.71;69.32;98397.03;4937228;29;20102;-76
2024/03/14 05:30:59;;;;;;;5.05;3.40;;;;;;;12.72;68.01;98402.13;4921063;29;20462;-75
2024/03/14 05:33:25;;;;;;;5.35;3.15;;;;;;;12.74;67.89;98408.03;4920755;29;20042;-75
2024/03/14 05:35:50;;;;;;;5.10;2.90;;;;;;;12.73;70.18;98395.06;4920870;29;20035;-74
2024/03/14 05:38:16;;;;;;;4.65;3.20;;;;;;;12.83;69.76;98415.06;4921764;29;20036;-76
2024/03/14 05:40:41;;;;;;;5.05;3.28;;;;;;;12.94;72.43;98411.47;4923984;29;20109;-76
2024/03/14 05:43:07;;;;;;;12.52;3.38;;;;;;;12.98;71.55;98412.00;4925083;29;20038;-77
2024/03/14 05:45:34;;;;;;;5.40;3.05;;;;;;;12.96;70.98;98408.72;4926148;29;20470;-88
2024/03/14 05:48:11;;;;;;;5.93;3.20;;;;;;;13.01;70.23;98411.72;4941473;29;20079;-83
2024/03/14 05:50:36;;;;;;;5.13;3.50;;;;;;;13.00;69.90;98400.44;4941572;29;20061;-79
2024/03/14 05:53:02;;;;;;;5.82;3.53;;;;;;;13.05;69.51;98420.97;4940437;29;20079;-78
2024/03/14 05:55:29;;;;;;;4.55;3.22;;;;;;;13.12;69.33;98423.84;4924788;29;20479;-78
2024/03/14 05:57:55;;;;;;;4.32;2.80;;;;;;;13.12;69.18;98411.56;4924981;29;20134;-77
2024/03/14 06:00:21;;;;;;;5.47;3.38;;;;;;;13.12;68.51;98408.94;4939772;29;20035;-79
2024/03/14 06:02:47;;;;;;;4.30;3.33;;;;;;;13.16;68.40;98410.31;4924680;29;20039;-77
2024/03/14 06:05:14;;;;;;;6.53;3.70;;;;;;;13.21;67.81;98426.44;4940674;29;20043;-78
2024/03/14 06:07:40;;;;;;;6.20;3.70;;;;;;;13.24;67.71;98422.72;4940583;29;20151;-77
2024/03/14 06:10:07;;;;;;;4.45;3.05;;;;;;;13.26;67.99;98420.78;4940521;29;20126;-78
2024/03/14 06:12:33;;;;;;;6.25;3.40;;;;;;;13.27;67.60;98419.81;4924500;29;20048;-78
2024/03/14 06:14:59;;;;;;;6.20;3.50;;;;;;;13.32;67.38;98425.47;4940399;29;20027;-79
2024/03/14 06:17:25;;;;;;;9.00;3.63;;;;;;;13.36;67.28;98433.91;4923725;29;20566;-78
2024/03/14 06:19:51;;;;;;;6.20;3.90;;;;;;;13.37;67.27;98433.75;4940529;29;20038;-81
2024/03/14 06:22:16;;;;;;;7.82;4.10;;;;;;;13.40;67.07;98440.50;4925092;29;20039;-80
2024/03/14 06:24:43;;;;;;;10.82;4.95;;;;;;;13.39;67.17;98428.38;4924124;29;20035;-81
2024/03/14 06:27:12;;;;;;;6.75;4.28;;;;;;;13.44;66.83;98431.41;4924358;29;20042;-80
2024/03/14 06:29:38;;;;;;;10.18;5.50;;;;;;;13.50;66.87;98437.84;4940493;29;20174;-81
2024/03/14 06:32:04;;;;;;;7.43;5.03;;;;;;;13.53;66.64;98443.63;4924084;29;20498;-81
2024/03/14 06:34:30;;;;;;;7.40;5.43;;;;;;;13.57;66.51;98437.16;4940004;29;20031;-80
2024/03/14 06:36:57;;;;;;;6.70;5.20;;;;;;;13.61;66.33;98442.91;4938792;29;20360;-80
2024/03/14 06:39:25;;;;;;;7.18;5.32;;;;;;;13.60;66.29;98446.53;4923517;29;20051;-80
2024/03/14 06:41:54;;;;;;;9.63;5.72;;;;;;;13.67;66.03;98444.16;4939816;29;20118;-81
2024/03/14 06:44:19;;;;;;;;;;;;;;;13.73;65.84;98459.31;4924601;29;20062;-80
2024/03/14 06:46:45;;;;;;;8.23;5.30;;;;;;;13.74;65.61;98455.72;4959627;28;20362;-81
2024/03/14 06:49:14;;;;;;;9.82;5.35;;;;;;;13.86;68.34;98456.38;4949407;28;20035;-84
2024/03/14 06:51:42;;;;;;;13.40;4.80;;;;;;;14.07;70.56;98469.25;4961340;28;20478;-83
2024/03/14 06:54:09;;;;;;;;;;;;;;;14.23;72.14;98472.06;4944836;28;20030;-80
2024/03/14 06:56:37;;;;;;;9.15;4.50;;;;;;;14.22;70.41;98457.28;4990960;28;19910;-80
2024/03/14 06:59:04;;;;;;;8.18;5.20;;;;;;;14.26;69.69;98473.56;4943058;28;20030;-81
2024/03/14 07:01:31;;;;;;;21.23;6.10;;;;;;;14.22;69.27;98469.59;4942739;28;20113;-77
2024/03/14 07:03:58;;;;;;;9.80;6.13;;;;;;;14.21;68.84;98471.38;4942375;28;20297;-79
2024/03/14 07:06:26;;;;;;;7.38;5.80;;;;;;;14.24;68.55;98475.53;4959204;28;20054;-79
2024/03/14 07:08:57;;;;;;;11.90;6.30;;;;;;;14.29;68.18;98478.53;4958687;28;20057;-79
2024/03/14 07:11:29;;;;;;;10.07;6.22;;;;;;;14.31;68.08;98484.47;4954745;29;20023;-80
2024/03/14 07:13:56;;;;;;;9.32;6.15;;;;;;;14.27;67.91;98477.84;4967094;28;20066;-80
2024/03/14 07:16:21;;;;;;;8.25;6.25;;;;;;;14.32;67.89;98483.47;4961340;28;20395;-81
2024/03/14 07:18:48;;;;;;;11.20;6.40;;;;;;;14.32;67.59;98487.91;4960921;28;20030;-82
2024/03/14 07:21:17;;;;;;;7.20;5.30;;;;;;;14.35;67.35;98485.81;4943585;28;20130;-82
2024/03/14 07:23:47;;;;;;;9.93;6.35;;;;;;;14.32;67.24;98482.66;4942731;28;20066;-81
2024/03/14 07:26:22;;;;;;;8.77;6.15;;;;;;;14.36;67.13;98481.38;4959113;28;20031;-81
2024/03/14 07:28:53;;;;;;;8.98;3.65;;;;;;;14.64;72.78;98480.41;4942398;28;20482;-83
2024/03/14 07:31:21;;;;;;;5.93;3.72;;;;;;;14.77;70.33;98492.34;4933578;28;20094;-83
2024/03/14 07:33:46;;;;;;;14.13;4.78;;;;;;;14.78;68.64;98479.03;4957399;28;20129;-83
2024/03/14 07:36:23;;;;;;;8.02;5.18;;;;;;;14.86;67.87;98490.63;4974032;28;20103;-85
2024/03/14 07:38:49;;;;;;;7.05;4.60;;;;;;;14.89;67.27;98498.22;4954517;29;20086;-84
2024/03/14 07:41:21;;;;;;;8.10;5.90;;;;;;;14.88;66.98;98491.28;4953382;29;20039;-84
2024/03/14 07:43:48;;;;;;;20.15;7.93;;;;;;;14.90;66.51;98492.81;4954306;29;20035;-84
2024/03/14 07:46:13;;;;;;;12.55;8.48;;;;;;;14.89;66.11;98480.63;4957012;28;20038;-84
2024/03/14 07:48:41;;;;;;;17.02;8.93;;;;;;;14.93;65.88;98499.56;4956974;28;20487;-83
2024/03/14 07:51:07;;;;;;;14.30;9.03;;;;;;;14.91;65.71;98491.84;4971230;28;20042;-85
2024/03/14 07:53:33;;;;;;;13.27;8.73;;;;;;;14.95;65.52;98495.78;4945324;28;20051;-83
2024/03/14 07:55:59;;;;;;;14.85;8.20;;;;;;;14.96;65.22;98497.47;4922324;29;20138;-83
2024/03/14 07:58:25;;;;;;;17.15;9.00;;;;;;;14.91;64.88;98489.22;4953972;29;20110;-83
2024/03/14 08:00:55;;;;;;;6.25;3.58;;;;;;;15.19;70.15;98495.16;4922406;29;20039;-87
2024/03/14 08:03:21;;;;;;;6.53;3.70;;;;;;;15.63;68.91;98489.06;4938831;29;20031;-86
2024/03/14 08:05:50;;;;;;;9.65;3.67;;;;;;;15.73;66.90;98495.06;4924840;29;20073;-89
2024/03/14 08:08:17;;;;;;;8.13;4.53;;;;;;;15.76;65.79;98498.34;4927037;29;20035;-81
2024/03/14 08:10:45;;;;;;;6.90;5.03;;;;;;;15.70;65.03;98498.00;4926910;29;20054;-86
2024/03/14 08:13:17;;;;;;;11.27;4.70;;;;;;;15.64;64.60;98493.34;4955566;29;20218;-80
2024/03/14 08:15:52;;;;;;;5.78;4.30;;;;;;;15.64;65.83;98501.25;4924720;29;20065;-81
2024/03/14 08:18:20;;;;;;;4.25;2.75;;;;;;;16.11;68.85;98494.75;4938711;29;20043;-81
2024/03/14 08:20:50;;;;;;;8.73;3.22;;;;;;;16.42;68.12;98496.84;4938992;29;20062;-83
2024/03/14 08:23:15;;;;;;;3.38;2.40;;;;;;;16.64;66.75;98493.59;4938727;29;20062;-81
2024/03/14 08:25:42;;;;;;;6.38;2.67;;;;;;;16.85;65.61;98488.88;4938038;29;20481;-82
2024/03/14 08:28:08;;;;;;;6.82;2.60;;;;;;;17.07;65.20;98495.34;4937904;29;20058;-83
2024/03/14 08:30:37;;;;;;;4.28;2.75;;;;;;;17.16;64.45;98500.44;4940124;29;20039;-81
2024/03/14 08:33:03;;;;;;;5.38;2.88;;;;;;;17.09;64.34;98496.81;4939843;29;20032;-80
2024/03/14 08:35:28;;;;;;;11.63;3.50;;;;;;;17.04;63.39;98498.31;4922371;29;20031;-80
2024/03/14 08:37:54;;;;;;;6.60;3.58;;;;;;;16.96;62.63;98505.22;4938026;29;20031;-79
2024/03/14 08:40:20;;;;;;;5.72;3.60;;;;;;;16.81;62.39;98502.38;4939566;28;20043;-80
2024/03/14 08:42:46;;;;;;;6.20;3.92;;;;;;;16.80;62.08;98495.44;4925498;28;20117;-81
2024/03/14 08:45:13;;;;;;;5.70;3.90;;;;;;;16.81;62.03;98501.56;4941396;28;20061;-79
2024/03/14 08:47:40;;;;;;;5.60;3.95;;;;;;;16.77;61.90;98498.41;4941472;28;20027;-79
2024/03/14 08:50:09;;;;;;;8.00;4.18;;;;;;;16.72;61.92;98503.34;4946926;28;20069;-78
2024/03/14 08:52:35;;;;;;;6.57;4.65;;;;;;;16.67;62.06;98499.53;4951602;28;20101;-81
2024/03/14 08:55:05;;;;;;;7.13;4.88;;;;;;;16.60;61.97;98497.56;4944092;28;20432;-77
2024/03/14 08:57:33;;;;;;;8.38;5.03;;;;;;;16.51;62.22;98506.44;4959716;28;20057;-79
2024/03/14 08:59:58;;;;;;;10.10;5.05;;;;;;;16.43;62.31;98507.22;4959285;28;20113;-80
2024/03/14 09:02:27;;;;;;;7.30;5.40;;;;;;;16.45;62.15;98501.81;4958332;28;20030;-77
2024/03/14 09:04:53;;;;;;;8.13;4.95;;;;;;;16.46;61.68;98491.09;4942690;28;20052;-79
2024/03/14 09:07:18;;;;;;;10.15;6.10;;;;;;;16.53;61.46;98504.44;4941836;28;20026;-78
2024/03/14 09:09:44;;;;;;;9.07;5.50;;;;;;;16.57;61.07;98497.03;4973814;28;20049;-79
2024/03/14 09:12:31;;;;;;;10.77;6.40;;;;;;;16.61;60.89;98501.03;4941918;28;20556;-78
2024/03/14 09:14:56;;;;;;;10.20;6.60;;;;;;;16.61;60.65;98488.66;4964688;28;20046;-77
2024/03/14 09:17:22;;;;;;;8.85;6.43;;;;;;;16.65;60.40;98489.16;4959715;28;20105;-78
2024/03/14 09:19:47;;;;;;;8.52;6.45;;;;;;;16.82;60.24;98496.13;4959994;28;20037;-77
2024/03/14 09:22:13;;;;;;;9.55;6.47;;;;;;;17.10;59.57;98500.28;4975904;28;20069;-78
2024/03/14 09:24:38;;;;;;;9.40;6.30;;;;;;;17.38;58.95;98494.66;4975825;28;20022;-77
2024/03/14 09:27:06;;;;;;;11.80;6.75;;;;;;;17.68;57.96;98488.69;4943918;28;20030;-79
2024/03/14 09:29:32;;;;;;;10.48;7.00;;;;;;;18.03;56.83;98489.25;4960245;28;20030;-78
2024/03/14 09:31:59;;;;;;;9.23;6.97;;;;;;;18.34;56.03;98492.91;4943860;28;20039;-79
2024/03/14 09:34:25;;;;;;;9.48;7.00;;;;;;;18.49;55.17;98493.84;4943812;28;20038;-78
2024/03/14 09:36:53;;;;;;;9.38;7.00;;;;;;;18.60;54.69;98503.19;4959899;28;20474;-77
2024/03/14 09:39:21;;;;;;;10.25;6.50;;;;;;;18.79;54.02;98481.59;4960294;28;20047;-79
2024/03/14 09:41:50;;;;;;;11.32;6.93;;;;;;;19.12;53.12;98496.44;4959135;28;20425;-78
2024/03/14 09:44:17;;;;;;;9.43;7.38;;;;;;;19.36;52.48;98490.09;4944114;28;20092;-77
2024/03/14 09:46:46;;;;;;;8.73;6.70;;;;;;;19.60;51.92;98494.31;4943677;28;20030;-78
2024/03/14 09:49:12;;;;;;;11.10;7.97;;;;;;;19.75;51.73;98493.50;4959650;28;20500;-77
2024/03/14 09:51:38;;;;;;;11.05;7.95;;;;;;;19.83;51.25;98472.25;4943319;28;20034;-81
2024/03/14 09:54:03;;;;;;;9.85;7.78;;;;;;;20.10;50.39;98480.56;4943156;28;20161;-78
2024/03/14 09:56:29;;;;;;;12.82;7.53;;;;;;;20.07;49.99;98479.13;4955971;28;20046;-80
2024/03/14 09:58:56;;;;;;;11.40;7.72;;;;;;;20.15;49.66;98475.56;4943665;28;20088;-82
2024/03/14 10:01:22;;;;;;;11.95;7.32;;;;;;;20.11;49.67;98474.25;4943925;28;20035;-79
2024/03/14 10:03:48;;;;;;;9.15;7.13;;;;;;;20.24;49.22;98485.84;4943220;28;20387;-79
2024/03/14 10:06:18;;;;;;;7.45;6.57;;;;;;;20.13;49.16;98480.19;4975259;28;20034;-77
2024/03/14 10:08:50;;;;;;;8.18;6.78;;;;;;;19.93;49.56;98480.75;4945051;28;20030;-77
2024/03/14 10:11:18;;;;;;;7.97;6.85;;;;;;;19.71;49.66;98477.97;4943603;28;20034;-79
2024/03/14 10:13:47;;;;;;;8.32;6.82;;;;;;;19.38;50.41;98487.28;4959492;28;20406;-78
2024/03/14 10:16:14;;;;;;;8.80;6.20;;;;;;;19.08;51.12;98484.56;4943590;28;20048;-78
2024/03/14 10:18:46;;;;;;;15.60;7.43;;;;;;;18.79;52.29;98496.63;4959748;28;20056;-80
2024/03/14 10:21:12;;;;;;;9.20;7.45;;;;;;;18.47;52.75;98492.34;4960403;28;20478;-80
2024/03/14 10:23:40;;;;;;;10.48;8.05;;;;;;;18.23;53.51;98496.75;4959357;28;20113;-77
2024/03/14 10:26:09;;;;;;;11.98;8.48;;;;;;;18.02;53.85;98494.72;4979485;28;20031;-78
2024/03/14 10:28:34;;;;;;;12.48;7.80;;;;;;;17.83;54.33;98501.19;4963652;28;20030;-79
2024/03/14 10:31:05;;;;;;;10.32;7.80;;;;;;;17.67;54.76;98499.41;4946573;28;20492;-77
2024/03/14 10:33:32;;;;;;;11.20;8.30;;;;;;;17.44;55.57;98504.53;4964176;28;20378;-78
2024/03/14 10:35:59;;;;;;;10.00;8.13;;;;;;;17.18;56.41;98498.47;4962966;28;20034;-79
2024/03/14 10:38:28;;;;;;;11.52;8.32;;;;;;;16.96;56.79;98488.56;4946411;28;20030;-77
2024/03/14 10:40:56;;;;;;;11.32;8.13;;;;;;;16.79;56.95;98496.44;4946276;28;20433;-79
2024/03/14 10:43:23;;;;;;;8.98;7.05;;;;;;;16.60;56.96;98489.66;4946746;28;20405;-79
2024/03/14 10:45:52;;;;;;;9.18;6.40;;;;;;;16.43;57.16;98496.69;4946450;28;20041;-78
2024/03/14 10:48:22;;;;;;;9.63;6.93;;;;;;;16.24;57.84;98495.16;4963919;28;20030;-80
2024/03/14 10:50:54;;;;;;;8.18;6.55;;;;;;;16.12;58.02;98495.59;4947249;28;20038;-80
2024/03/14 10:53:20;;;;;;;7.43;5.80;;;;;;;15.95;58.35;98495.50;4947402;28;20030;-77
2024/03/14 10:55:45;;;;;;;9.38;5.20;;;;;;;15.82;58.44;98498.56;4946457;28;20038;-80
2024/03/14 10:58:11;;;;;;;6.93;5.57;;;;;;;15.74;58.69;98498.50;4946109;28;20532;-79
2024/03/14 11:00:37;;;;;;;7.40;5.22;;;;;;;15.63;58.93;98501.41;4945637;28;20038;-79
2024/03/14 11:03:03;;;;;;;8.23;5.57;;;;;;;15.58;59.26;98503.69;4962033;28;20073;-78
2024/03/14 11:05:28;;;;;;;7.65;5.03;;;;;;;15.52;59.39;98494.59;4945968;28;20034;-78
2024/03/14 11:08:00;;;;;;;6.95;5.30;;;;;;;15.47;59.73;98496.88;4961875;28;20027;-78
2024/03/14 11:10:28;;;;;;;8.02;5.40;;;;;;;15.42;59.85;98488.59;4963905;28;20551;-82
2024/03/14 11:13:05;;;;;;;7.35;5.40;;;;;;;15.36;60.28;98487.41;4962005;28;20042;-78
2024/03/14 11:15:30;;;;;;;6.70;5.10;;;;;;;15.33;60.47;98490.34;4978903;28;20061;-79
2024/03/14 11:17:59;;;;;;;7.05;5.30;;;;;;;15.29;60.77;98489.00;4945804;28;20493;-78
2024/03/14 11:20:27;;;;;;;7.18;4.72;;;;;;;15.19;61.19;98489.91;4946407;28;20026;-78
2024/03/14 11:22:53;;;;;;;;;;;;;;;15.17;61.23;98497.13;4946902;28;20053;-79
2024/03/14 11:25:20;;;;;;;7.88;4.68;;;;;;;15.11;61.52;98487.22;4977721;28;20008;-80
2024/03/14 11:27:46;;;;;;;9.48;5.15;;;;;;;15.14;61.52;98486.91;4945529;28;20038;-77
2024/03/14 11:30:21;;;;;;;6.40;4.40;;;;;;;15.16;61.32;98486.75;4961527;28;20406;-79
2024/03/14 11:32:49;;;;;;;7.18;4.70;;;;;;;15.21;61.44;98476.59;4962968;28;20545;-78
2024/03/14 11:35:36;;;;;;;6.95;5.03;;;;;;;15.25;61.50;98483.22;4961443;28;20069;-80